North Hibbing, Minnesota
Current Conditions -  °F | °C
As of 7:11 PM on Sunday 23 Nov 2014 (Local Time) from KHIB Reporting Station
Haze Haze  
Wind Chill: 30°   Ceiling: 6000
Heat Index: 35°   Visibility: 3mi
Dew Point: 32°   Wind: 6mph
Humidity: 89%   Direction: 310°NW
Pressure: 29.36"   Gusts: NA
Location:  47.4158°N, 93.0053°W
Report Text: KHIB 240111Z AUTO 31005KT 3SM BR BKN060 OVC075 02/00 A2936 RMK AO2 T00170000
Loading
Personal Weather Stations






























Interactive Weather Map New forecast layout! Learn more

10-Day Weather Forecast

Advertisements
Track Severe Weather on mobile